createdAt,value
2023-02-16T00:00:19.671Z,89.03
2023-02-16T00:02:47.133Z,89.20
2023-02-16T00:05:25.475Z,89.88
2023-02-16T00:07:53.676Z,89.63
2023-02-16T00:10:21.150Z,89.72
2023-02-16T00:13:07.205Z,89.76
2023-02-16T00:15:34.963Z,89.83
2023-02-16T00:18:11.757Z,89.56
2023-02-16T00:20:38.914Z,89.74
2023-02-16T00:23:05.945Z,89.42
2023-02-16T00:25:33.235Z,89.35
2023-02-16T00:28:02.807Z,89.36
2023-02-16T00:30:29.925Z,89.14
2023-02-16T00:32:56.994Z,89.08
2023-02-16T00:35:24.254Z,89.25
2023-02-16T00:37:51.336Z,88.92
2023-02-16T00:40:18.689Z,89.00
2023-02-16T00:42:47.803Z,88.74
2023-02-16T00:45:21.351Z,88.79
2023-02-16T00:47:49.662Z,88.64
2023-02-16T00:50:18.239Z,88.41
2023-02-16T00:52:47.759Z,88.32
2023-02-16T00:55:23.894Z,87.82
2023-02-16T00:58:07.979Z,87.60
2023-02-16T01:00:56.219Z,87.20
2023-02-16T01:03:25.715Z,87.09
2023-02-16T01:06:12.060Z,86.86
2023-02-16T01:08:57.555Z,86.86
2023-02-16T01:11:26.886Z,86.82
2023-02-16T01:13:56.331Z,86.73
2023-02-16T01:16:27.387Z,86.81
2023-02-16T01:18:54.773Z,86.84
2023-02-16T01:21:22.169Z,86.33
2023-02-16T01:23:49.563Z,86.28
2023-02-16T01:26:20.400Z,86.07
2023-02-16T01:28:48.480Z,85.88
2023-02-16T01:31:18.084Z,85.87
2023-02-16T01:33:45.387Z,85.96
2023-02-16T01:36:24.206Z,86.03
2023-02-16T01:38:51.525Z,86.23
2023-02-16T01:41:40.952Z,86.04
2023-02-16T01:44:32.055Z,86.26
2023-02-16T01:47:05.587Z,86.32
2023-02-16T01:49:32.522Z,86.21
2023-02-16T01:52:27.515Z,86.13
2023-02-16T01:54:58.522Z,86.13
2023-02-16T01:58:01.484Z,86.11
2023-02-16T02:00:33.228Z,86.33
2023-02-16T02:03:23.594Z,86.08
2023-02-16T02:05:51.865Z,86.01
2023-02-16T02:08:30.113Z,85.97
2023-02-16T02:11:30.484Z,86.27
2023-02-16T02:14:23.133Z,85.94
2023-02-16T02:16:59.512Z,85.83
2023-02-16T02:19:29.164Z,85.79
2023-02-16T02:22:55.869Z,85.74
2023-02-16T02:25:41.251Z,86.10
2023-02-16T02:28:12.640Z,86.25
2023-02-16T02:30:46.749Z,86.12
2023-02-16T02:33:51.924Z,86.08
2023-02-16T02:36:37.821Z,86.19
2023-02-16T02:39:24.000Z,86.04
2023-02-16T02:42:19.912Z,85.95
2023-02-16T02:45:10.174Z,85.62
2023-02-16T02:47:48.448Z,85.78
2023-02-16T02:50:37.439Z,86.06
2023-02-16T02:53:15.693Z,85.97
2023-02-16T02:56:08.128Z,85.99
2023-02-16T02:58:56.054Z,85.52
2023-02-16T03:01:24.744Z,85.12
2023-02-16T03:03:57.170Z,84.29
2023-02-16T03:06:28.648Z,84.13
2023-02-16T03:09:04.632Z,83.44
2023-02-16T03:11:50.668Z,83.14
2023-02-16T03:14:22.980Z,82.70
2023-02-16T03:17:13.097Z,82.67
2023-02-16T03:20:01.894Z,82.78
2023-02-16T03:22:48.545Z,82.51
2023-02-16T03:25:34.549Z,82.45
2023-02-16T03:28:23.669Z,82.58
2023-02-16T03:30:52.936Z,82.45
2023-02-16T03:33:21.312Z,82.27
2023-02-16T03:35:48.896Z,81.92
2023-02-16T03:38:16.492Z,82.04
2023-02-16T03:40:45.573Z,82.33
2023-02-16T03:43:12.744Z,81.77
2023-02-16T03:45:42.126Z,81.71
2023-02-16T03:48:09.489Z,81.32
2023-02-16T03:50:36.679Z,81.54
2023-02-16T03:53:07.200Z,81.78
2023-02-16T03:55:35.359Z,81.74
2023-02-16T03:58:04.538Z,81.71
2023-02-16T04:00:32.185Z,82.00
2023-02-16T04:02:59.381Z,82.32
2023-02-16T04:05:26.720Z,82.25
2023-02-16T04:07:54.172Z,82.75
2023-02-16T04:10:21.711Z,83.11
2023-02-16T04:12:48.880Z,82.87
2023-02-16T04:15:18.982Z,83.17
2023-02-16T04:17:48.385Z,83.29
2023-02-16T04:20:18.488Z,83.19
2023-02-16T04:22:45.867Z,83.77
2023-02-16T04:25:14.168Z,83.70
2023-02-16T04:27:42.029Z,83.36
2023-02-16T04:30:12.915Z,83.19
2023-02-16T04:32:40.311Z,83.20
2023-02-16T04:35:08.595Z,83.26
2023-02-16T04:37:36.039Z,83.45
2023-02-16T04:40:04.196Z,83.39
2023-02-16T04:42:31.666Z,83.46
2023-02-16T04:45:01.181Z,83.47
2023-02-16T04:47:28.756Z,83.37
2023-02-16T04:49:55.917Z,82.95
2023-02-16T04:52:23.062Z,82.81
2023-02-16T04:54:50.235Z,82.38
2023-02-16T04:57:18.057Z,81.59
2023-02-16T04:59:45.262Z,80.95
2023-02-16T05:02:12.359Z,80.58
2023-02-16T05:04:39.842Z,81.08
2023-02-16T05:07:06.939Z,80.97
2023-02-16T05:09:34.332Z,80.62
2023-02-16T05:12:19.870Z,80.51
2023-02-16T05:14:47.179Z,80.34
2023-02-16T05:17:25.607Z,80.29
2023-02-16T05:19:58.400Z,80.58
2023-02-16T05:22:26.655Z,80.83
2023-02-16T05:24:53.914Z,80.57
2023-02-16T05:27:23.800Z,80.77
2023-02-16T05:29:51.187Z,80.42
2023-02-16T05:32:18.578Z,80.68
2023-02-16T05:34:45.796Z,80.84
2023-02-16T05:37:15.024Z,80.79
2023-02-16T05:39:42.489Z,80.58
2023-02-16T05:42:11.108Z,80.65
2023-02-16T05:44:38.447Z,80.67
2023-02-16T05:47:05.591Z,80.54
2023-02-16T05:49:32.702Z,80.53
2023-02-16T05:51:59.881Z,80.30
2023-02-16T05:54:28.109Z,80.03
2023-02-16T05:56:55.809Z,80.12
2023-02-16T05:59:23.314Z,79.82
2023-02-16T06:01:52.100Z,79.31
2023-02-16T06:04:21.345Z,79.37
2023-02-16T06:06:49.201Z,77.52
2023-02-16T06:09:16.595Z,77.46
2023-02-16T06:11:43.947Z,77.29
2023-02-16T06:14:17.157Z,76.35
2023-02-16T06:16:47.737Z,74.67
2023-02-16T06:19:17.384Z,73.79
2023-02-16T06:21:44.997Z,72.35
2023-02-16T06:24:13.491Z,69.83
2023-02-16T06:26:40.759Z,67.66
2023-02-16T06:29:08.181Z,65.99
2023-02-16T06:31:36.777Z,65.67
2023-02-16T06:34:05.035Z,62.35
2023-02-16T06:36:32.985Z,62.63
2023-02-16T06:39:00.119Z,60.16
2023-02-16T06:41:38.028Z,59.66
2023-02-16T06:44:07.118Z,57.64
2023-02-16T06:46:34.579Z,56.28
2023-02-16T06:49:01.831Z,55.89
2023-02-16T06:51:29.212Z,55.13
2023-02-16T06:53:56.604Z,53.36
2023-02-16T06:56:24.592Z,53.12
2023-02-16T06:58:51.784Z,52.37
2023-02-16T07:01:23.409Z,51.30
2023-02-16T07:03:52.024Z,52.14
2023-02-16T07:06:20.417Z,54.66
2023-02-16T07:08:47.734Z,55.59
2023-02-16T07:11:15.231Z,56.91
2023-02-16T07:13:42.381Z,56.46
2023-02-16T07:16:10.465Z,58.72
2023-02-16T07:18:37.820Z,59.37
2023-02-16T07:21:06.941Z,60.18
2023-02-16T07:23:34.754Z,60.54
2023-02-16T07:26:02.066Z,59.73
2023-02-16T07:28:29.327Z,59.28
2023-02-16T07:30:56.795Z,56.00
2023-02-16T07:33:23.943Z,55.39
2023-02-16T07:35:51.637Z,55.10
2023-02-16T07:38:18.705Z,56.18
2023-02-16T07:40:45.955Z,57.40
2023-02-16T07:43:13.010Z,58.12
2023-02-16T07:45:42.476Z,59.46
2023-02-16T07:48:09.721Z,60.04
2023-02-16T07:50:37.938Z,59.97
2023-02-16T07:53:06.909Z,60.69
2023-02-16T07:55:38.626Z,60.38
2023-02-16T07:58:05.842Z,61.16
2023-02-16T08:00:32.882Z,60.96
2023-02-16T08:03:00.237Z,61.11
2023-02-16T08:05:27.697Z,61.26
2023-02-16T08:07:55.196Z,61.69
2023-02-16T08:10:22.858Z,62.42
2023-02-16T08:12:50.115Z,62.15
2023-02-16T08:15:18.194Z,61.23
2023-02-16T08:17:45.310Z,61.08
2023-02-16T08:20:13.029Z,60.42
2023-02-16T08:22:40.178Z,59.82
2023-02-16T08:25:07.992Z,59.16
2023-02-16T08:27:35.953Z,59.37
2023-02-16T08:30:03.695Z,59.11
2023-02-16T08:32:31.480Z,58.34
2023-02-16T08:34:58.788Z,57.35
2023-02-16T08:37:25.876Z,56.81
2023-02-16T08:39:54.012Z,55.80
2023-02-16T08:42:21.417Z,54.81
2023-02-16T08:44:48.577Z,54.17
2023-02-16T08:47:17.013Z,52.97
2023-02-16T08:49:44.689Z,53.45
2023-02-16T08:52:12.616Z,53.68
2023-02-16T08:54:40.142Z,53.22
2023-02-16T08:57:07.421Z,53.23
2023-02-16T08:59:35.076Z,53.17
2023-02-16T09:02:02.728Z,53.68
2023-02-16T09:04:29.910Z,54.28
2023-02-16T09:06:58.637Z,54.41
2023-02-16T09:09:26.703Z,53.99
2023-02-16T09:11:54.284Z,54.37
2023-02-16T09:14:21.756Z,53.94
2023-02-16T09:16:49.470Z,54.23
2023-02-16T09:19:19.340Z,54.53
2023-02-16T09:21:47.760Z,54.36
2023-02-16T09:24:16.196Z,53.93
2023-02-16T09:26:44.756Z,54.15
2023-02-16T09:29:14.044Z,54.24
2023-02-16T09:31:44.526Z,53.98
2023-02-16T09:34:19.678Z,53.69
2023-02-16T09:36:48.017Z,53.66
2023-02-16T09:39:17.203Z,53.48
2023-02-16T09:42:31.901Z,52.80
2023-02-16T09:45:14.074Z,52.88
2023-02-16T09:47:50.648Z,52.89
2023-02-16T09:50:52.074Z,53.51
2023-02-16T09:53:40.999Z,53.19
2023-02-16T09:56:27.456Z,53.47
2023-02-16T09:59:27.235Z,52.85
2023-02-16T10:02:23.506Z,51.90
2023-02-16T10:05:13.372Z,52.33
2023-02-16T10:07:53.070Z,52.23
2023-02-16T10:10:24.500Z,51.36
2023-02-16T10:13:09.443Z,50.09
2023-02-16T10:15:40.393Z,50.63
2023-02-16T10:18:19.184Z,49.55
2023-02-16T10:20:52.482Z,48.18
2023-02-16T10:23:38.236Z,45.31
2023-02-16T10:26:18.627Z,42.49
2023-02-16T10:28:53.220Z,44.34
2023-02-16T10:31:20.296Z,44.91
2023-02-16T10:33:59.542Z,44.06
2023-02-16T10:37:00.722Z,44.22
2023-02-16T10:40:01.984Z,42.42
2023-02-16T10:43:00.936Z,42.82
2023-02-16T10:45:36.164Z,43.40
2023-02-16T10:48:05.705Z,43.30
2023-02-16T10:50:37.945Z,42.65
2023-02-16T10:53:13.858Z,41.93
2023-02-16T10:55:41.451Z,40.79
2023-02-16T10:58:20.721Z,41.68
2023-02-16T11:00:52.107Z,41.15
2023-02-16T11:03:24.036Z,40.40
2023-02-16T11:05:53.499Z,40.63
2023-02-16T11:08:20.734Z,40.22
2023-02-16T11:10:51.932Z,38.27
2023-02-16T11:13:37.644Z,37.24
2023-02-16T11:16:14.203Z,38.32
2023-02-16T11:18:45.440Z,36.11
2023-02-16T11:21:13.453Z,36.58
2023-02-16T11:23:42.514Z,36.40
2023-02-16T11:26:12.682Z,37.64
2023-02-16T11:28:45.357Z,38.19
2023-02-16T11:31:33.254Z,38.70
2023-02-16T11:34:06.567Z,38.14
2023-02-16T11:36:41.970Z,37.31
2023-02-16T11:39:14.731Z,38.06
2023-02-16T11:42:10.589Z,38.69
2023-02-16T11:44:50.990Z,39.72
2023-02-16T11:47:27.488Z,37.62
2023-02-16T11:50:31.558Z,38.88
2023-02-16T11:53:15.957Z,37.15
2023-02-16T11:55:46.917Z,37.14
2023-02-16T11:58:29.389Z,36.55
2023-02-16T12:01:23.988Z,36.31
2023-02-16T12:04:09.980Z,36.26
2023-02-16T12:07:08.636Z,35.59
2023-02-16T12:09:58.895Z,36.18
2023-02-16T12:12:49.463Z,35.07
2023-02-16T12:15:33.039Z,34.36
2023-02-16T12:18:25.922Z,34.38
2023-02-16T12:21:36.514Z,34.73
2023-02-16T12:24:45.679Z,35.53
2023-02-16T12:27:32.161Z,34.63
2023-02-16T12:30:25.578Z,35.22
2023-02-16T12:33:06.496Z,36.28
2023-02-16T12:35:56.318Z,37.23
2023-02-16T12:38:49.064Z,36.99
2023-02-16T12:41:42.306Z,37.49
2023-02-16T12:44:31.085Z,39.03
2023-02-16T12:47:08.497Z,39.89
2023-02-16T12:49:47.909Z,40.79
2023-02-16T12:52:40.558Z,40.73
2023-02-16T12:55:17.109Z,40.65
2023-02-16T12:57:53.045Z,41.42
2023-02-16T13:00:36.940Z,41.83
2023-02-16T13:03:34.810Z,41.17
2023-02-16T13:06:25.251Z,41.61
2023-02-16T13:09:07.455Z,41.35
2023-02-16T13:11:55.886Z,39.70
2023-02-16T13:14:28.577Z,38.81
2023-02-16T13:17:11.999Z,37.31
2023-02-16T13:19:39.004Z,35.57
2023-02-16T13:22:08.834Z,36.33
2023-02-16T13:24:58.540Z,36.78
2023-02-16T13:27:47.701Z,36.92
2023-02-16T13:30:55.649Z,37.13
2023-02-16T13:33:55.514Z,37.30
2023-02-16T13:36:45.865Z,41.57
2023-02-16T13:39:43.598Z,54.02
2023-02-16T13:42:36.842Z,54.49
2023-02-16T13:45:34.424Z,56.34
2023-02-16T13:48:02.200Z,57.51
2023-02-16T13:50:34.316Z,57.73
2023-02-16T13:53:21.509Z,57.89
2023-02-16T13:55:52.914Z,59.10
2023-02-16T13:58:19.968Z,57.74
2023-02-16T14:00:49.111Z,57.94
2023-02-16T14:03:21.365Z,59.35
2023-02-16T14:05:53.120Z,58.34
2023-02-16T14:08:29.577Z,59.96
2023-02-16T14:11:08.845Z,60.72
2023-02-16T14:13:38.728Z,62.22
2023-02-16T14:16:18.389Z,62.00
2023-02-16T14:19:16.282Z,62.98
2023-02-16T14:21:46.386Z,64.15
2023-02-16T14:24:35.948Z,64.15
2023-02-16T14:27:10.862Z,65.50
2023-02-16T14:29:42.824Z,66.20
2023-02-16T14:32:10.750Z,66.01
2023-02-16T14:34:43.075Z,66.70
2023-02-16T14:37:23.785Z,67.91
2023-02-16T14:40:07.411Z,67.06
2023-02-16T14:42:36.408Z,67.52
2023-02-16T14:45:38.008Z,68.54
2023-02-16T14:48:29.437Z,69.07
2023-02-16T14:51:15.327Z,69.88
2023-02-16T14:54:23.974Z,70.91
2023-02-16T14:57:12.843Z,70.84
2023-02-16T15:00:02.061Z,71.57
2023-02-16T15:02:40.819Z,71.68
2023-02-16T15:05:18.000Z,70.85
2023-02-16T15:07:51.567Z,71.13
2023-02-16T15:10:28.954Z,70.24
2023-02-16T15:12:56.787Z,70.00
2023-02-16T15:15:45.084Z,68.63
2023-02-16T15:18:17.530Z,69.15
2023-02-16T15:20:47.590Z,70.70
2023-02-16T15:23:34.969Z,72.00
2023-02-16T15:26:09.383Z,71.56
2023-02-16T15:28:39.818Z,70.82
2023-02-16T15:31:18.226Z,71.67
2023-02-16T15:33:58.035Z,71.75
2023-02-16T15:36:35.553Z,72.40
2023-02-16T15:39:07.145Z,72.29
2023-02-16T15:41:37.373Z,72.47
2023-02-16T15:44:07.252Z,72.86
2023-02-16T15:46:43.866Z,73.01
2023-02-16T15:49:21.551Z,72.64
2023-02-16T15:51:49.509Z,72.21
2023-02-16T15:54:19.230Z,70.94
2023-02-16T15:56:54.438Z,70.80
2023-02-16T15:59:44.974Z,72.13
2023-02-16T16:02:14.471Z,72.54
2023-02-16T16:04:56.021Z,72.91
2023-02-16T16:07:29.516Z,72.99
2023-02-16T16:09:58.292Z,73.30
2023-02-16T16:12:27.306Z,72.83
2023-02-16T16:14:56.647Z,72.22
2023-02-16T16:17:30.491Z,72.29
2023-02-16T16:20:17.494Z,72.48
2023-02-16T16:22:45.242Z,72.38
2023-02-16T16:25:52.989Z,73.17
2023-02-16T16:28:26.579Z,73.66
2023-02-16T16:31:13.984Z,74.14
2023-02-16T16:34:02.297Z,74.27
2023-02-16T16:36:56.339Z,74.06
2023-02-16T16:39:35.830Z,74.07
2023-02-16T16:42:27.346Z,74.02
2023-02-16T16:45:05.519Z,74.03
2023-02-16T16:47:39.608Z,73.75
2023-02-16T16:50:15.555Z,74.00
2023-02-16T16:52:48.889Z,74.10
2023-02-16T16:55:24.446Z,74.06
2023-02-16T16:58:00.459Z,74.23
2023-02-16T17:00:34.809Z,74.31
2023-02-16T17:03:08.099Z,74.25
2023-02-16T17:05:38.467Z,74.41
2023-02-16T17:08:06.294Z,74.44
2023-02-16T17:10:35.428Z,74.41
2023-02-16T17:13:03.250Z,74.66
2023-02-16T17:15:43.126Z,74.74
2023-02-16T17:18:17.131Z,74.58
2023-02-16T17:20:45.024Z,74.51
2023-02-16T17:23:14.432Z,74.90
2023-02-16T17:25:42.628Z,74.78
2023-02-16T17:28:11.261Z,74.81
2023-02-16T17:30:38.820Z,74.65
2023-02-16T17:33:07.396Z,75.04
2023-02-16T17:35:36.923Z,74.92
2023-02-16T17:38:09.566Z,74.92
2023-02-16T17:40:37.239Z,74.88
2023-02-16T17:43:14.149Z,75.48
2023-02-16T17:45:42.584Z,75.67
2023-02-16T17:48:22.473Z,75.45
2023-02-16T17:50:51.455Z,75.63
2023-02-16T17:53:23.213Z,75.91
2023-02-16T17:55:53.376Z,76.03
2023-02-16T17:58:22.087Z,76.31
2023-02-16T18:00:49.452Z,76.51
2023-02-16T18:03:16.694Z,76.37
2023-02-16T18:05:44.050Z,76.61
2023-02-16T18:08:12.759Z,76.81
2023-02-16T18:10:44.063Z,76.34
2023-02-16T18:13:11.989Z,73.38
2023-02-16T18:15:42.496Z,71.40
2023-02-16T18:18:09.719Z,68.21
2023-02-16T18:20:36.866Z,66.48
2023-02-16T18:23:04.814Z,66.43
2023-02-16T18:25:32.811Z,65.88
2023-02-16T18:27:59.999Z,65.88
2023-02-16T18:30:27.255Z,65.45
2023-02-16T18:32:54.403Z,65.35
2023-02-16T18:35:21.518Z,65.42
2023-02-16T18:37:49.007Z,65.26
2023-02-16T18:40:29.065Z,65.45
2023-02-16T18:42:58.582Z,64.88
2023-02-16T18:45:26.013Z,65.55
2023-02-16T18:47:53.354Z,65.92
2023-02-16T18:50:20.498Z,66.16
2023-02-16T18:52:47.775Z,66.04
2023-02-16T18:55:15.945Z,66.02
2023-02-16T18:57:43.240Z,65.85
2023-02-16T19:00:12.221Z,66.12
2023-02-16T19:02:41.091Z,66.00
2023-02-16T19:05:10.590Z,66.19
2023-02-16T19:07:38.212Z,66.27
2023-02-16T19:10:10.437Z,66.58
2023-02-16T19:12:39.422Z,67.01
2023-02-16T19:15:08.066Z,66.89
2023-02-16T19:17:35.710Z,67.05
2023-02-16T19:20:02.737Z,67.03
2023-02-16T19:22:29.863Z,67.32
2023-02-16T19:24:56.861Z,67.40
2023-02-16T19:27:23.841Z,67.67
2023-02-16T19:29:50.895Z,67.59
2023-02-16T19:32:20.253Z,67.79
2023-02-16T19:34:47.456Z,67.93
2023-02-16T19:37:15.250Z,67.96
2023-02-16T19:39:42.324Z,68.26
2023-02-16T19:42:09.596Z,68.06
2023-02-16T19:44:36.920Z,68.34
2023-02-16T19:47:04.122Z,68.47
2023-02-16T19:49:31.098Z,68.53
2023-02-16T19:52:02.386Z,68.90
2023-02-16T19:54:32.628Z,69.24
2023-02-16T19:56:59.843Z,69.62
2023-02-16T19:59:27.159Z,69.73
2023-02-16T20:01:54.413Z,69.97
2023-02-16T20:04:21.479Z,70.14
2023-02-16T20:06:49.317Z,70.40
2023-02-16T20:09:18.550Z,70.87
2023-02-16T20:11:45.721Z,70.69
2023-02-16T20:14:13.347Z,71.01
2023-02-16T20:16:41.367Z,70.91
2023-02-16T20:19:08.621Z,70.54
2023-02-16T20:21:35.658Z,70.61
2023-02-16T20:24:05.401Z,70.76
2023-02-16T20:26:39.316Z,70.83
2023-02-16T20:29:08.534Z,70.85
2023-02-16T20:31:42.729Z,70.91
2023-02-16T20:34:10.335Z,70.60
2023-02-16T20:36:37.940Z,70.72
2023-02-16T20:39:07.139Z,70.79
2023-02-16T20:41:34.637Z,71.19
2023-02-16T20:44:03.224Z,71.17
2023-02-16T20:46:30.739Z,71.18
2023-02-16T20:48:57.948Z,71.10
2023-02-16T20:51:25.815Z,71.28
2023-02-16T20:53:53.026Z,71.06
2023-02-16T20:56:24.953Z,71.21
2023-02-16T20:58:56.344Z,71.20
2023-02-16T21:01:39.121Z,71.38
2023-02-16T21:04:08.166Z,71.29
2023-02-16T21:06:37.211Z,71.26
2023-02-16T21:09:07.002Z,71.36
2023-02-16T21:11:35.531Z,71.69
2023-02-16T21:14:04.168Z,71.56
2023-02-16T21:16:31.940Z,71.61
2023-02-16T21:18:59.499Z,71.56
2023-02-16T21:21:27.158Z,71.77
2023-02-16T21:23:55.650Z,71.90
2023-02-16T21:26:25.192Z,72.16
2023-02-16T21:28:53.771Z,72.03
2023-02-16T21:31:24.095Z,72.33
2023-02-16T21:33:52.656Z,72.32
2023-02-16T21:36:23.321Z,72.35
2023-02-16T21:38:50.792Z,72.45
2023-02-16T21:41:27.798Z,72.64
2023-02-16T21:44:00.925Z,72.62
2023-02-16T21:46:31.908Z,72.57
2023-02-16T21:48:59.946Z,72.25
2023-02-16T21:51:30.281Z,72.11
2023-02-16T21:53:58.252Z,72.06
2023-02-16T21:56:36.246Z,71.79
2023-02-16T21:59:05.702Z,71.91
2023-02-16T22:01:36.689Z,72.09
2023-02-16T22:04:04.905Z,72.12
2023-02-16T22:06:39.993Z,72.08
2023-02-16T22:09:10.730Z,72.33
2023-02-16T22:11:38.826Z,72.08
2023-02-16T22:14:06.722Z,72.32
2023-02-16T22:16:36.377Z,72.37
2023-02-16T22:19:10.872Z,72.67
2023-02-16T22:21:41.974Z,72.80
2023-02-16T22:24:12.780Z,72.78
2023-02-16T22:26:40.689Z,73.18
2023-02-16T22:29:08.858Z,73.13
2023-02-16T22:31:37.284Z,73.19
2023-02-16T22:34:07.799Z,73.58
2023-02-16T22:36:36.667Z,73.96
2023-02-16T22:39:04.613Z,73.85
2023-02-16T22:41:31.639Z,73.96
2023-02-16T22:44:02.350Z,74.24
2023-02-16T22:46:30.108Z,74.23
2023-02-16T22:48:58.878Z,74.48
2023-02-16T22:51:30.714Z,74.53
2023-02-16T22:53:59.191Z,74.71
2023-02-16T23:08:53.432Z,74.53
2023-02-16T23:11:20.772Z,74.61
2023-02-16T23:13:48.146Z,74.30
2023-02-16T23:16:17.732Z,74.35
2023-02-16T23:18:45.446Z,74.34
2023-02-16T23:21:18.412Z,74.47
2023-02-16T23:23:46.764Z,74.35
2023-02-16T23:26:14.421Z,74.30
2023-02-16T23:28:43.151Z,74.39
2023-02-16T23:31:12.742Z,74.46
2023-02-16T23:33:39.910Z,74.62
2023-02-16T23:36:07.512Z,74.77
2023-02-16T23:38:34.621Z,74.67
2023-02-16T23:41:07.411Z,74.52
2023-02-16T23:43:35.551Z,74.78
2023-02-16T23:46:03.262Z,74.47
2023-02-16T23:48:31.052Z,74.59
2023-02-16T23:50:58.728Z,74.48
2023-02-16T23:53:27.622Z,74.56
2023-02-16T23:56:05.187Z,74.64
2023-02-16T23:58:41.274Z,74.75
